DLH422 EDDF-KBOS
Flight info
| Callsign | DLH422 |
|---|---|
| Flight time | N/A |
| Altitude | 38000 |
| Route | OBOKA3M/25C OBOKA Z28 DIBIR DCT BUDIP DCT MIMVA L602 NALAX L46 GETNO DCT MIMKU DCT BILTO/M080F390 NATF IRLOK/N0468F400 N726B TAFFY DCT AJJAY OOSHN5 |
| Aircraft | A343/H-SDE2E3FGHIJ4J5M1RWXY/LB1D1 |
Departure
| Time | 2026-04-17 12:19 |
|---|---|
| Airport | Frankfurt Main Airport (EDDF) |
Arrival
| Time | N/A |
|---|---|
| Airport | Boston Logan International Airport (KBOS) |
| Time | Latitude | Longitude | Altitude | Speed | Heading |
|---|---|---|---|---|---|
| 2026-04-17 11:19 | 50.04961 | 8.58295 | 363 ft | 0 kts | 339° |
| 2026-04-17 12:05 | 50.04959 | 8.58296 | 370 ft | 2 kts | 339° |
| 2026-04-17 12:05 | 50.04935 | 8.58310 | 370 ft | 4 kts | 339° |
| 2026-04-17 12:05 | 50.04911 | 8.58325 | 370 ft | 4 kts | 340° |
| 2026-04-17 12:05 | 50.04887 | 8.58335 | 367 ft | 4 kts | 9° |
| 2026-04-17 12:06 | 50.04867 | 8.58317 | 364 ft | 4 kts | 58° |
| 2026-04-17 12:06 | 50.04856 | 8.58279 | 367 ft | 4 kts | 71° |
| 2026-04-17 12:06 | 50.04850 | 8.58253 | 367 ft | 1 kts | 69° |
| 2026-04-17 12:10 | 50.04855 | 8.58273 | 370 ft | 8 kts | 69° |
| 2026-04-17 12:10 | 50.04877 | 8.58364 | 370 ft | 9 kts | 69° |
| 2026-04-17 12:11 | 50.04901 | 8.58462 | 371 ft | 10 kts | 69° |
| 2026-04-17 12:11 | 50.04923 | 8.58555 | 369 ft | 9 kts | 69° |
| 2026-04-17 12:11 | 50.04927 | 8.58637 | 368 ft | 5 kts | 108° |
| 2026-04-17 12:12 | 50.04915 | 8.58662 | 370 ft | 1 kts | 142° |
| 2026-04-17 12:12 | 50.04905 | 8.58668 | 370 ft | 0 kts | 155° |
| 2026-04-17 12:13 | 50.04893 | 8.58677 | 371 ft | 5 kts | 156° |
| 2026-04-17 12:13 | 50.04866 | 8.58695 | 373 ft | 3 kts | 156° |
| 2026-04-17 12:13 | 50.04848 | 8.58708 | 370 ft | 6 kts | 156° |
| 2026-04-17 12:13 | 50.04818 | 8.58724 | 369 ft | 3 kts | 160° |
| 2026-04-17 12:14 | 50.04804 | 8.58732 | 374 ft | 4 kts | 160° |
| 2026-04-17 12:14 | 50.04794 | 8.58738 | 373 ft | 0 kts | 160° |
| 2026-04-17 12:15 | 50.04793 | 8.58738 | 373 ft | 1 kts | 160° |
| 2026-04-17 12:15 | 50.04751 | 8.58762 | 375 ft | 11 kts | 164° |
| 2026-04-17 12:15 | 50.04694 | 8.58766 | 374 ft | 7 kts | 179° |
| 2026-04-17 12:15 | 50.04657 | 8.58758 | 374 ft | 5 kts | 189° |
| 2026-04-17 12:16 | 50.04627 | 8.58749 | 374 ft | 4 kts | 192° |
| 2026-04-17 12:16 | 50.04608 | 8.58736 | 377 ft | 3 kts | 203° |
| 2026-04-17 12:16 | 50.04593 | 8.58721 | 378 ft | 3 kts | 212° |
| 2026-04-17 12:16 | 50.04527 | 8.58671 | 375 ft | 8 kts | 200° |
| 2026-04-17 12:17 | 50.04496 | 8.58646 | 378 ft | 2 kts | 242° |
| 2026-04-17 12:17 | 50.04495 | 8.58633 | 378 ft | 0 kts | 253° |
| 2026-04-17 12:18 | 50.04493 | 8.58625 | 376 ft | 6 kts | 253° |
| 2026-04-17 12:18 | 50.04418 | 8.58284 | 374 ft | 61 kts | 251° |
| 2026-04-17 12:18 | 50.04208 | 8.57422 | 373 ft | 108 kts | 250° |
| 2026-04-17 12:18 | 50.03900 | 8.56146 | 360 ft | 146 kts | 249° |
| 2026-04-17 12:19 | 50.03499 | 8.54545 | 625 ft | 158 kts | 246° |
| 2026-04-17 12:19 | 50.03072 | 8.52902 | 906 ft | 176 kts | 247° |
| 2026-04-17 12:19 | 50.02748 | 8.51666 | 1094 ft | 190 kts | 248° |
| 2026-04-17 12:19 | 50.01830 | 8.49173 | 1412 ft | 217 kts | 219° |
| 2026-04-17 12:20 | 50.00362 | 8.48266 | 1683 ft | 241 kts | 191° |
| 2026-04-17 12:20 | 49.98621 | 8.47763 | 1961 ft | 267 kts | 192° |
| 2026-04-17 12:20 | 49.97366 | 8.47281 | 2150 ft | 283 kts | 196° |
| 2026-04-17 12:20 | 49.95400 | 8.46471 | 2400 ft | 301 kts | 195° |
| 2026-04-17 12:21 | 49.93457 | 8.45689 | 2638 ft | 281 kts | 195° |
| 2026-04-17 12:21 | 49.91733 | 8.44624 | 2857 ft | 255 kts | 216° |
| 2026-04-17 12:21 | 49.90595 | 8.42689 | 3104 ft | 238 kts | 236° |
| 2026-04-17 12:21 | 49.89713 | 8.40497 | 3362 ft | 240 kts | 239° |
| 2026-04-17 12:22 | 49.88906 | 8.38220 | 3579 ft | 242 kts | 247° |
| 2026-04-17 12:22 | 49.88580 | 8.35624 | 3908 ft | 253 kts | 269° |
| 2026-04-17 12:22 | 49.88685 | 8.32849 | 4601 ft | 259 kts | 274° |
| 2026-04-17 12:22 | 49.88844 | 8.30101 | 4997 ft | 262 kts | 274° |
| 2026-04-17 12:23 | 49.89123 | 8.27264 | 5744 ft | 269 kts | 285° |
| 2026-04-17 12:23 | 49.89931 | 8.24675 | 6592 ft | 273 kts | 303° |
| 2026-04-17 12:23 | 49.91048 | 8.22273 | 7410 ft | 275 kts | 306° |
| 2026-04-17 12:23 | 49.92205 | 8.19893 | 8221 ft | 277 kts | 305° |
| 2026-04-17 12:24 | 49.93362 | 8.17502 | 9096 ft | 277 kts | 306° |
| 2026-04-17 12:24 | 49.94652 | 8.15269 | 9910 ft | 279 kts | 316° |
| 2026-04-17 12:24 | 49.96119 | 8.13252 | 10545 ft | 286 kts | 318° |
| 2026-04-17 12:24 | 49.97681 | 8.11186 | 10857 ft | 303 kts | 319° |
| 2026-04-17 12:25 | 49.99310 | 8.09030 | 11145 ft | 319 kts | 319° |
| 2026-04-17 12:25 | 50.01040 | 8.06727 | 11438 ft | 335 kts | 318° |
| 2026-04-17 12:25 | 50.02846 | 8.04315 | 11752 ft | 348 kts | 318° |
| 2026-04-17 12:25 | 50.04706 | 8.01828 | 12267 ft | 355 kts | 318° |
| 2026-04-17 12:26 | 50.06594 | 7.99300 | 12842 ft | 360 kts | 318° |
| 2026-04-17 12:26 | 50.08504 | 7.96738 | 13501 ft | 364 kts | 318° |
| 2026-04-17 12:26 | 50.10432 | 7.94146 | 14154 ft | 367 kts | 318° |
| 2026-04-17 12:26 | 50.12377 | 7.91529 | 14757 ft | 371 kts | 318° |
| 2026-04-17 12:27 | 50.14335 | 7.88890 | 15328 ft | 374 kts | 318° |
| 2026-04-17 12:27 | 50.16311 | 7.86226 | 15935 ft | 377 kts | 317° |
| 2026-04-17 12:27 | 50.18306 | 7.83533 | 16530 ft | 380 kts | 317° |
| 2026-04-17 12:27 | 50.20311 | 7.80823 | 17134 ft | 383 kts | 317° |
| 2026-04-17 12:28 | 50.22342 | 7.78075 | 17668 ft | 388 kts | 317° |
| 2026-04-17 12:28 | 50.24409 | 7.75336 | 18246 ft | 392 kts | 320° |
| 2026-04-17 12:28 | 50.26684 | 7.73049 | 18766 ft | 397 kts | 331° |
| 2026-04-17 12:28 | 50.29199 | 7.71216 | 19295 ft | 400 kts | 334° |
| 2026-04-17 12:29 | 50.31762 | 7.69473 | 19810 ft | 403 kts | 334° |
| 2026-04-17 12:29 | 50.34352 | 7.67718 | 20140 ft | 406 kts | 334° |
| 2026-04-17 12:29 | 50.36939 | 7.65956 | 20222 ft | 406 kts | 334° |
| 2026-04-17 12:29 | 50.39527 | 7.64187 | 20220 ft | 402 kts | 334° |
| 2026-04-17 12:30 | 50.42103 | 7.62419 | 20220 ft | 408 kts | 334° |
| 2026-04-17 12:30 | 50.44703 | 7.60630 | 20223 ft | 407 kts | 334° |
| 2026-04-17 12:30 | 50.47295 | 7.58847 | 20222 ft | 406 kts | 334° |
| 2026-04-17 12:30 | 50.49887 | 7.57058 | 20226 ft | 406 kts | 334° |
| 2026-04-17 12:31 | 50.52475 | 7.55272 | 20225 ft | 406 kts | 334° |
| 2026-04-17 12:31 | 50.55037 | 7.53450 | 20227 ft | 404 kts | 331° |
| 2026-04-17 12:31 | 50.57478 | 7.51247 | 20448 ft | 406 kts | 326° |
| 2026-04-17 12:31 | 50.59861 | 7.48839 | 20968 ft | 407 kts | 325° |
| 2026-04-17 12:32 | 50.62203 | 7.46441 | 21501 ft | 408 kts | 324° |
| 2026-04-17 12:32 | 50.64597 | 7.43986 | 21960 ft | 412 kts | 324° |
| 2026-04-17 12:32 | 50.67002 | 7.41517 | 22463 ft | 414 kts | 324° |
| 2026-04-17 12:32 | 50.69418 | 7.39034 | 22941 ft | 416 kts | 324° |
| 2026-04-17 12:33 | 50.71843 | 7.36520 | 23393 ft | 418 kts | 323° |
| 2026-04-17 12:33 | 50.74127 | 7.33674 | 23811 ft | 419 kts | 314° |
| 2026-04-17 12:33 | 50.76081 | 7.30260 | 24196 ft | 419 kts | 307° |
| 2026-04-17 12:33 | 50.77847 | 7.26601 | 24581 ft | 420 kts | 304° |
| 2026-04-17 12:34 | 50.79545 | 7.22837 | 24968 ft | 421 kts | 303° |
| 2026-04-17 12:34 | 50.81214 | 7.19026 | 25345 ft | 422 kts | 303° |
| 2026-04-17 12:34 | 50.82881 | 7.15190 | 25716 ft | 424 kts | 303° |
| 2026-04-17 12:34 | 50.84558 | 7.11343 | 26085 ft | 425 kts | 303° |
| 2026-04-17 12:35 | 50.86251 | 7.07484 | 26452 ft | 427 kts | 303° |
| 2026-04-17 12:35 | 50.87949 | 7.03630 | 26771 ft | 429 kts | 303° |
| 2026-04-17 12:35 | 50.89646 | 6.99793 | 27094 ft | 431 kts | 304° |
| 2026-04-17 12:35 | 50.91374 | 6.95895 | 27431 ft | 432 kts | 304° |
| 2026-04-17 12:37 | 51.03568 | 6.68196 | 29638 ft | 442 kts | 304° |
| 2026-04-17 12:37 | 51.05328 | 6.64174 | 29922 ft | 444 kts | 304° |
| 2026-04-17 12:38 | 51.07070 | 6.60186 | 30166 ft | 446 kts | 303° |
| 2026-04-17 12:38 | 51.08837 | 6.56137 | 30409 ft | 447 kts | 303° |
| 2026-04-17 12:38 | 51.10613 | 6.52067 | 30659 ft | 448 kts | 303° |
| 2026-04-17 12:38 | 51.12384 | 6.47995 | 31004 ft | 446 kts | 303° |
| 2026-04-17 12:39 | 51.14142 | 6.43940 | 31359 ft | 444 kts | 303° |
| 2026-04-17 12:39 | 51.15895 | 6.39890 | 31702 ft | 442 kts | 303° |
| 2026-04-17 12:39 | 51.17636 | 6.35861 | 32080 ft | 440 kts | 303° |
| 2026-04-17 12:39 | 51.19365 | 6.31855 | 32465 ft | 437 kts | 303° |
| 2026-04-17 12:40 | 51.21085 | 6.27864 | 32790 ft | 436 kts | 303° |
| 2026-04-17 12:40 | 51.22795 | 6.23890 | 33095 ft | 434 kts | 303° |
| 2026-04-17 12:40 | 51.24503 | 6.19916 | 33397 ft | 433 kts | 303° |
| 2026-04-17 12:40 | 51.26185 | 6.15996 | 33646 ft | 433 kts | 303° |
| 2026-04-17 12:41 | 51.27887 | 6.12022 | 33898 ft | 433 kts | 303° |
| 2026-04-17 12:41 | 51.29572 | 6.08043 | 34198 ft | 432 kts | 302° |
| 2026-04-17 12:41 | 51.31215 | 6.04047 | 34449 ft | 431 kts | 302° |
| 2026-04-17 12:41 | 51.32846 | 6.00029 | 34659 ft | 430 kts | 302° |
| 2026-04-17 12:42 | 51.34466 | 5.96018 | 34870 ft | 429 kts | 302° |
| 2026-04-17 12:42 | 51.36091 | 5.92006 | 35082 ft | 429 kts | 302° |
| 2026-04-17 12:42 | 51.37870 | 5.88181 | 35261 ft | 429 kts | 309° |
| 2026-04-17 12:42 | 51.39941 | 5.84724 | 35483 ft | 430 kts | 315° |
| 2026-04-17 12:43 | 51.42122 | 5.81466 | 35667 ft | 430 kts | 316° |
| 2026-04-17 12:43 | 51.44346 | 5.78258 | 35882 ft | 429 kts | 316° |
| 2026-04-17 12:43 | 51.46578 | 5.75094 | 36081 ft | 428 kts | 316° |
| 2026-04-17 12:43 | 51.48822 | 5.71928 | 36190 ft | 430 kts | 316° |
| 2026-04-17 12:44 | 51.51075 | 5.68747 | 36209 ft | 432 kts | 316° |
| 2026-04-17 12:44 | 51.55566 | 5.62372 | 36209 ft | 429 kts | 316° |
| 2026-04-17 12:45 | 51.60030 | 5.55992 | 36206 ft | 429 kts | 316° |
| 2026-04-17 12:45 | 51.64455 | 5.49640 | 36207 ft | 429 kts | 316° |
| 2026-04-17 12:46 | 51.68913 | 5.43222 | 36221 ft | 429 kts | 316° |
| 2026-04-17 12:46 | 51.73360 | 5.36805 | 36204 ft | 429 kts | 316° |
| 2026-04-17 12:47 | 51.77808 | 5.30369 | 36204 ft | 430 kts | 315° |
| 2026-04-17 12:47 | 51.82258 | 5.23910 | 36202 ft | 430 kts | 315° |
| 2026-04-17 12:48 | 51.86708 | 5.17436 | 36203 ft | 430 kts | 315° |
| 2026-04-17 12:48 | 51.91157 | 5.10946 | 36206 ft | 431 kts | 315° |
| 2026-04-17 12:49 | 51.95608 | 5.04435 | 36202 ft | 430 kts | 315° |
| 2026-04-17 12:49 | 52.00039 | 4.97934 | 36197 ft | 429 kts | 315° |
| 2026-04-17 12:50 | 52.04446 | 4.91450 | 36201 ft | 429 kts | 315° |
| 2026-04-17 12:50 | 52.08870 | 4.84920 | 36205 ft | 430 kts | 314° |
| 2026-04-17 12:51 | 52.13304 | 4.78359 | 36206 ft | 431 kts | 314° |
| 2026-04-17 12:51 | 52.17740 | 4.71778 | 36209 ft | 431 kts | 314° |
| 2026-04-17 12:52 | 52.22165 | 4.65195 | 36202 ft | 430 kts | 314° |
| 2026-04-17 12:52 | 52.26581 | 4.58606 | 36198 ft | 430 kts | 314° |
| 2026-04-17 12:53 | 52.30993 | 4.52005 | 36203 ft | 430 kts | 314° |
| 2026-04-17 12:53 | 52.35373 | 4.45431 | 36202 ft | 430 kts | 314° |
| 2026-04-17 12:54 | 52.39783 | 4.38796 | 36199 ft | 430 kts | 314° |
| 2026-04-17 12:54 | 52.44189 | 4.32147 | 36209 ft | 430 kts | 314° |
| 2026-04-17 12:55 | 52.48582 | 4.25498 | 36208 ft | 430 kts | 314° |
| 2026-04-17 12:55 | 52.52967 | 4.18843 | 36202 ft | 429 kts | 314° |
| 2026-04-17 12:56 | 52.57349 | 4.12173 | 36202 ft | 429 kts | 314° |
| 2026-04-17 12:56 | 52.61725 | 4.05494 | 36209 ft | 429 kts | 313° |
| 2026-04-17 12:57 | 52.66101 | 3.98795 | 36215 ft | 429 kts | 313° |
| 2026-04-17 12:57 | 52.70454 | 3.92109 | 36215 ft | 431 kts | 313° |
| 2026-04-17 12:58 | 52.74842 | 3.85357 | 36209 ft | 431 kts | 313° |
| 2026-04-17 12:58 | 52.79222 | 3.78596 | 36194 ft | 430 kts | 313° |
| 2026-04-17 12:59 | 52.83590 | 3.71832 | 36173 ft | 430 kts | 313° |
| 2026-04-17 12:59 | 52.87957 | 3.65050 | 36190 ft | 430 kts | 313° |